Charlwood, United Kingdom

8:35 PM GMT on December 06, 2016 (GMT +0000)
Ifield, Crawley, West Sussex | | Change Station

Elev 259 ft 51.11 °N, 0.23 °W | Updated 5 minutes ago

Overcast
Overcast
49.1 °F
Feels Like 49 °F
N
1.0
Wind Variable Wind from SSW
Gusts 3.0 mph

Today
High -- | Low -- °F
--% Chance of Precip.
Yesterday
High -- | Low -- °F
Precip. -- in
Pressure 30.33 in
Visibility 3.7 miles
Clouds Overcast 800 ft
Windchill 49 °F
Dew Point 48 °F
Humidity 95%
Rainfall 0.00 in
Snow Depth Not available.
7:49 AM 3:54 PM
Waxing Crescent, 45% visible
METAR EGKK 062020Z 21004KT 170V240 6000 OVC008 10/09 Q1027
Pressure 30.33 in
Visibility 3.7 miles
Clouds Overcast 800 ft
Windchill 49 °F
Dew Point 48 °F
Humidity 95%
Rainfall 0.00 in
Snow Depth Not available.
7:49 AM 3:54 PM
Waxing Crescent, 45% visible
METAR EGKK 062020Z 21004KT 170V240 6000 OVC008 10/09 Q1027

10-Day Weather Forecast

×

Almanac

Astronomy

Dec. 06, 2016 Rise Set
Actual Time
Civil Twilight
Nautical Twilight
Astronomical Twilight
Moon
Length of Visible Light
Length of Day
Tomorrow will be .
, % of the Moon is Illuminated

Today's Extremes

Country Highs Country Lows

Community

WunderPhotos

Upload Photos

1,956,024 photos uploaded!

WunderBlog® & News

Nearby

Air Quality

  Air Quality AQ Index Pollutant
Not available.

Snow Depth

Station Depth Elevation

Earthquake Activity

City Distance Mag. Time & Date
Minimum magnitude displayed is 2.5.

Coastal Water Temperatures

Place Temperature

Stations

Nearby Weather Stations

Station Location Temp. Windchill Dew Point Humidity Wind Precip. Elev Updated Type